Time;durP1;ratioP1;P1;durP2;ratioP2;P2;SDS_P1;SDS_P2;PMS_P1;PMS_P2;Temp;Humidity;BMP_temperature;BMP_pressure;BME280_temperature;BME280_humidity;BME280_pressure;Samples;Min_cycle;Max_cycle;Signal;HPM_P1;HPM_P2
2023/07/12 00:00:35;;;;;;;9.83;6.87;;;22.90;86.10;;;23.41;57.34;95246.31;4964108;28;20536;-67
2023/07/12 00:03:03;;;;;;;8.00;6.97;;;22.80;86.00;;;23.40;56.84;95257.28;4963768;28;20460;-67
2023/07/12 00:05:30;;;;;;;7.43;6.73;;;22.80;86.10;;;23.38;57.19;95254.81;4961436;28;20524;-68
2023/07/12 00:07:58;;;;;;;13.33;7.93;;;22.80;86.60;;;23.36;57.42;95250.66;4957577;28;20467;-59
2023/07/12 00:10:28;;;;;;;8.67;6.57;;;22.80;86.90;;;23.33;57.94;95251.94;4964221;28;20960;-61
2023/07/12 00:12:55;;;;;;;8.47;7.20;;;22.80;87.20;;;23.31;58.08;95253.16;4967083;28;20516;-60
2023/07/12 00:15:26;;;;;;;8.43;7.50;;;22.80;87.70;;;23.30;57.83;95246.13;4967087;28;20840;-61
2023/07/12 00:17:54;;;;;;;12.70;7.27;;;22.70;87.30;;;23.25;57.96;95244.09;4967531;28;20460;-61
2023/07/12 00:20:25;;;;;;;12.60;7.47;;;22.70;87.60;;;23.21;57.97;95240.19;4967157;28;20503;-60
2023/07/12 00:22:52;;;;;;;14.13;8.03;;;22.60;87.50;;;23.16;57.68;95232.78;4967248;28;20955;-68
2023/07/12 00:25:21;;;;;;;8.03;7.20;;;22.60;87.90;;;23.14;58.12;95245.56;4967255;28;20868;-68
2023/07/12 00:27:48;;;;;;;13.30;7.10;;;22.60;88.50;;;23.13;58.64;95241.25;4968323;28;20448;-69
2023/07/12 00:30:19;;;;;;;9.30;7.37;;;22.60;88.60;;;23.10;58.77;95228.25;4965410;28;20558;-68
2023/07/12 00:32:51;;;;;;;13.70;7.77;;;22.50;89.60;;;23.09;57.98;95227.41;4968031;28;20451;-68
2023/07/12 00:35:20;;;;;;;10.00;8.60;;;22.50;88.80;;;23.06;58.09;95227.78;4966904;28;20556;-68
2023/07/12 00:37:48;;;;;;;12.80;8.77;;;22.50;88.80;;;23.04;58.23;95226.34;4966736;28;20523;-61
2023/07/12 00:40:47;;;;;;;13.60;7.50;;;22.50;88.80;;;23.02;58.69;95228.41;4966467;28;20502;-69
2023/07/12 00:43:22;;;;;;;12.80;7.20;;;22.40;88.90;;;22.98;58.51;95228.00;4963564;28;20520;-67
2023/07/12 00:45:51;;;;;;;15.70;8.00;;;22.40;89.20;;;22.97;58.79;95225.53;4965869;28;20850;-61
2023/07/12 00:48:20;;;;;;;9.67;8.67;;;22.40;89.50;;;22.94;59.00;95217.91;4963089;28;20456;-70
2023/07/12 00:50:49;;;;;;;14.70;8.37;;;22.40;89.90;;;22.92;59.00;95237.69;4968321;28;21248;-60
2023/07/12 00:53:18;;;;;;;10.97;8.33;;;22.40;89.90;;;22.91;59.07;95236.06;4965244;28;20462;-62
2023/07/12 00:56:06;;;;;;;17.77;9.00;;;22.40;90.00;;;22.90;59.68;95229.03;4964376;28;20536;-69
2023/07/12 00:58:36;;;;;;;11.23;8.60;;;22.40;90.30;;;22.89;59.67;95232.75;4964883;28;20487;-60
2023/07/12 01:01:04;;;;;;;15.60;8.47;;;22.30;90.30;;;22.89;59.09;95226.56;4966317;28;20976;-69
2023/07/12 01:03:36;;;;;;;11.80;9.10;;;22.30;90.40;;;22.86;59.65;95225.13;4966738;28;20451;-69
2023/07/12 01:06:04;;;;;;;10.93;8.80;;;22.30;90.40;;;22.85;59.05;95225.31;4966399;28;20574;-61
2023/07/12 01:08:31;;;;;;;8.43;7.60;;;22.30;90.50;;;22.84;59.26;95226.38;4966381;28;20466;-69
2023/07/12 01:10:59;;;;;;;15.60;8.30;;;22.30;90.60;;;22.81;59.68;95214.19;4962857;28;20467;-68
2023/07/12 01:13:26;;;;;;;14.23;8.63;;;22.30;90.70;;;22.80;59.65;95225.13;4966467;28;20525;-68
2023/07/12 01:15:53;;;;;;;13.57;8.00;;;22.20;90.70;;;22.79;59.73;95223.47;4966313;28;20487;-61
2023/07/12 01:18:21;;;;;;;9.77;7.80;;;22.20;90.70;;;22.77;60.18;95215.63;4966315;28;20459;-63
2023/07/12 01:21:07;;;;;;;9.10;7.83;;;22.20;91.00;;;22.77;60.30;95226.38;4965199;28;20562;-70
2023/07/12 01:23:34;;;;;;;14.07;7.97;;;22.20;91.20;;;22.77;60.25;95226.38;4963373;28;20455;-69
2023/07/12 01:26:23;;;;;;;9.67;8.40;;;22.20;91.30;;;22.75;60.42;95217.72;4966059;28;20490;-62
2023/07/12 01:28:53;;;;;;;17.93;8.17;;;22.20;91.50;;;22.73;60.30;95217.09;4965268;28;20448;-64
2023/07/12 01:31:20;;;;;;;23.50;7.97;;;22.20;91.50;;;22.72;60.45;95218.13;4962542;28;20890;-70
2023/07/12 01:33:47;;;;;;;12.57;7.60;;;22.20;91.60;;;22.71;60.74;95216.47;4966908;28;20536;-69
2023/07/12 01:36:16;;;;;;;9.03;7.97;;;22.10;91.50;;;22.70;60.67;95229.06;4966598;28;20991;-61
2023/07/12 01:38:43;;;;;;;8.87;7.97;;;22.10;91.50;;;22.68;60.71;95231.13;4965472;28;20865;-70
2023/07/12 01:41:11;;;;;;;10.97;9.30;;;22.10;91.80;;;22.68;60.55;95230.28;4966375;28;20478;-68
2023/07/12 01:43:38;;;;;;;10.97;8.27;;;22.10;91.70;;;22.67;60.49;95220.63;4966695;28;20888;-61
2023/07/12 01:46:05;;;;;;;17.43;7.80;;;22.10;91.80;;;22.69;60.23;95223.91;4966761;28;20476;-69
2023/07/12 01:48:32;;;;;;;18.97;9.07;;;22.10;91.80;;;22.69;60.04;95234.63;4961401;28;20459;-69
2023/07/12 01:51:00;;;;;;;17.80;8.40;;;22.10;91.80;;;22.66;60.23;95235.03;4968081;28;20545;-60
2023/07/12 01:53:29;;;;;;;13.10;7.47;;;22.10;91.80;;;22.64;60.57;95231.75;4969095;28;20875;-69
2023/07/12 01:55:56;;;;;;;11.80;7.60;;;22.10;91.90;;;22.62;60.77;95231.97;4965921;28;20491;-70
2023/07/12 01:58:24;;;;;;;10.80;7.27;;;22.10;92.00;;;22.63;60.62;95232.78;4966283;28;20539;-69
2023/07/12 02:00:51;;;;;;;10.83;7.90;;;22.10;92.10;;;22.62;60.64;95240.00;4966338;28;20506;-68
2023/07/12 02:03:18;;;;;;;11.27;8.33;;;22.10;92.10;;;22.59;60.49;95240.41;4967064;28;20460;-69
2023/07/12 02:05:46;;;;;;;13.13;8.63;;;22.00;92.10;;;22.57;60.82;95245.13;4966273;28;20479;-61
2023/07/12 02:08:13;;;;;;;12.83;8.10;;;22.00;92.00;;;22.54;60.54;95240.19;4965886;28;20552;-69
2023/07/12 02:10:42;;;;;;;13.43;8.33;;;22.00;92.00;;;22.51;60.49;95243.28;4962065;28;21003;-60
2023/07/12 02:13:10;;;;;;;12.17;7.63;;;22.00;92.20;;;22.47;60.95;95258.94;4959496;28;20456;-61
2023/07/12 02:15:37;;;;;;;13.50;8.37;;;21.90;92.60;;;22.46;60.66;95261.84;4964402;28;20475;-60
2023/07/12 02:18:05;;;;;;;12.57;8.13;;;21.90;92.40;;;22.45;60.88;95258.34;4961032;28;20516;-61
2023/07/12 02:20:32;;;;;;;13.57;8.80;;;21.90;92.50;;;22.42;61.36;95250.69;4961772;28;20506;-60
2023/07/12 02:22:59;;;;;;;18.53;9.00;;;21.90;92.60;;;22.38;61.38;95254.81;4961221;28;20526;-69
2023/07/12 02:25:27;;;;;;;11.60;8.17;;;21.90;92.70;;;22.35;61.17;95255.22;4965280;28;20472;-68
2023/07/12 02:27:55;;;;;;;13.43;7.77;;;21.80;92.70;;;22.31;61.16;95254.00;4961035;28;20460;-60
2023/07/12 02:30:24;;;;;;;9.37;8.50;;;21.80;92.90;;;22.28;61.41;95243.66;4961404;28;20479;-70
2023/07/12 02:32:51;;;;;;;13.93;8.60;;;21.80;92.90;;;22.20;61.21;95250.03;4961913;28;20515;-70
2023/07/12 02:35:20;;;;;;;11.10;9.60;;;21.70;93.00;;;22.21;61.67;95259.69;4964704;28;20487;-63
2023/07/12 02:37:47;;;;;;;14.43;7.93;;;21.70;93.10;;;22.17;61.42;95259.28;4960933;28;20509;-70
2023/07/12 02:40:15;;;;;;;11.23;8.80;;;21.60;93.20;;;22.14;61.88;95258.88;4969007;28;20521;-69
2023/07/12 02:42:42;;;;;;;16.70;8.03;;;21.60;93.30;;;22.12;62.06;95276.97;4971261;28;20451;-68
2023/07/12 02:45:11;;;;;;;10.50;8.10;;;21.60;93.40;;;22.09;62.24;95270.19;4959379;28;20860;-70
2023/07/12 02:47:38;;;;;;;10.80;8.80;;;21.60;93.50;;;22.07;62.10;95271.41;4962976;28;20525;-69
2023/07/12 02:50:06;;;;;;;9.40;7.57;;;21.50;93.60;;;22.06;62.22;95270.59;4965173;28;20557;-71
2023/07/12 02:52:34;;;;;;;9.30;8.40;;;21.50;93.60;;;22.05;62.19;95273.47;4964160;28;20448;-61
2023/07/12 02:55:02;;;;;;;14.73;9.00;;;21.50;93.80;;;22.03;61.94;95281.72;4964756;28;20483;-68
2023/07/12 02:57:29;;;;;;;9.90;8.90;;;21.50;93.80;;;22.05;61.90;95282.34;4965043;28;20456;-69
2023/07/12 02:59:56;;;;;;;11.47;8.33;;;21.50;93.90;;;22.06;62.35;95284.00;4964768;28;20503;-68
2023/07/12 03:02:25;;;;;;;14.60;9.20;;;21.50;93.90;;;22.05;62.60;95281.50;4964698;28;20490;-70
2023/07/12 03:04:52;;;;;;;10.17;8.30;;;21.50;94.00;;;22.03;62.47;95279.03;4963396;28;20467;-70
2023/07/12 03:07:20;;;;;;;11.67;9.17;;;21.50;94.10;;;22.02;62.42;95277.38;4962471;28;20463;-61
2023/07/12 03:09:47;;;;;;;9.50;8.50;;;21.50;94.10;;;22.01;62.44;95275.72;4964188;28;21015;-61
2023/07/12 03:12:14;;;;;;;12.77;8.37;;;21.50;94.40;;;22.00;62.21;95284.78;4965073;28;20455;-61
2023/07/12 03:14:41;;;;;;;11.60;9.37;;;21.50;94.40;;;21.99;62.83;95288.50;4965187;28;20472;-61
2023/07/12 03:17:08;;;;;;;12.43;9.73;;;21.50;94.60;;;21.98;62.69;95281.47;4964903;28;20470;-60
2023/07/12 03:19:37;;;;;;;21.20;9.80;;;21.40;94.50;;;21.95;62.74;95290.75;4964819;28;20514;-61
2023/07/12 03:22:05;;;;;;;17.27;8.80;;;21.40;94.60;;;21.95;62.57;95289.91;4963954;28;21013;-61
2023/07/12 03:24:32;;;;;;;13.90;8.30;;;21.40;94.60;;;21.94;62.73;95290.97;4964670;28;20479;-61
2023/07/12 03:27:00;;;;;;;12.30;9.37;;;21.40;94.50;;;21.95;62.75;95303.31;4964440;28;20988;-69
2023/07/12 03:29:27;;;;;;;10.03;8.93;;;21.40;94.60;;;21.97;62.94;95290.56;4960345;28;20575;-69
2023/07/12 03:31:54;;;;;;;17.33;9.50;;;21.40;94.80;;;21.97;62.91;95286.00;4964375;28;20459;-69
2023/07/12 03:34:21;;;;;;;11.77;9.10;;;21.40;94.80;;;21.97;62.80;95294.06;4960014;28;20529;-69
2023/07/12 03:36:50;;;;;;;14.53;9.87;;;21.40;94.90;;;21.96;62.84;95300.41;4964232;28;20448;-70
2023/07/12 03:39:17;;;;;;;13.43;9.83;;;21.40;95.00;;;21.95;63.07;95305.97;4959925;28;20452;-68
2023/07/12 03:41:45;;;;;;;12.33;9.27;;;21.40;95.40;;;21.93;63.09;95303.50;4979298;28;20999;-61
2023/07/12 03:44:12;;;;;;;18.13;8.80;;;21.40;95.10;;;21.91;63.22;95316.28;4967126;28;23016;-60
2023/07/12 03:46:39;;;;;;;15.60;10.37;;;21.40;95.30;;;21.91;63.23;95308.25;4990821;28;20568;-63
2023/07/12 03:49:07;;;;;;;19.47;9.97;;;21.40;95.40;;;21.91;63.45;95318.13;4982255;28;20468;-70
2023/07/12 03:51:34;;;;;;;15.00;8.90;;;21.40;95.50;;;21.90;63.38;95311.94;4965776;28;20475;-70
2023/07/12 03:54:03;;;;;;;16.70;10.13;;;21.40;95.60;;;21.90;63.31;95311.94;4964258;28;20524;-61
2023/07/12 03:56:30;;;;;;;16.27;10.53;;;21.40;95.70;;;21.91;63.42;95318.94;4976993;28;20471;-62
2023/07/12 03:58:57;;;;;;;12.10;10.03;;;21.40;95.80;;;21.92;63.88;95319.78;4959769;28;20537;-62
2023/07/12 04:01:24;;;;;;;16.63;10.20;;;21.40;95.90;;;21.92;63.64;95325.97;4962269;28;20590;-62
2023/07/12 04:03:52;;;;;;;16.13;11.63;;;21.40;96.00;;;21.93;63.99;95322.25;4955201;28;21206;-62
2023/07/12 04:06:19;;;;;;;11.93;10.60;;;21.40;96.10;;;21.93;63.77;95311.53;4959632;28;20555;-68
2023/07/12 04:08:46;;;;;;;25.73;10.20;;;21.40;96.10;;;21.93;63.77;95305.38;4957210;28;20474;-62
2023/07/12 04:11:26;;;;;;;13.60;9.77;;;21.40;96.20;;;21.95;63.97;95314.00;4958359;28;20479;-62
2023/07/12 04:13:53;;;;;;;11.50;9.40;;;21.40;96.40;;;21.96;64.01;95313.00;4957858;28;20527;-69
2023/07/12 04:16:20;;;;;;;27.53;9.93;;;21.40;96.40;;;21.96;63.96;95311.13;4960102;28;20489;-61
2023/07/12 04:18:48;;;;;;;15.63;10.50;;;21.40;96.50;;;21.97;63.98;95302.09;4956665;28;20487;-61
2023/07/12 04:21:15;;;;;;;15.23;11.63;;;21.50;96.70;;;21.98;63.74;95310.94;4957834;28;21015;-65
2023/07/12 04:23:42;;;;;;;29.13;14.30;;;21.40;96.40;;;21.98;63.89;95309.09;4983558;28;20513;-65
2023/07/12 04:26:10;;;;;;;21.30;12.57;;;21.50;96.50;;;21.99;64.03;95309.91;4963648;28;20904;-65
2023/07/12 04:28:39;;;;;;;16.53;11.83;;;21.50;96.60;;;22.00;64.29;95315.06;4962953;28;20464;-63
2023/07/12 04:31:10;;;;;;;11.93;10.67;;;21.50;96.90;;;22.02;64.37;95309.53;4965460;28;20550;-66
2023/07/12 04:33:37;;;;;;;14.97;12.10;;;21.50;96.80;;;22.04;64.26;95302.09;4955253;28;20513;-66
2023/07/12 04:36:08;;;;;;;12.27;10.30;;;21.50;96.90;;;22.08;64.18;95313.25;4972142;28;20561;-63
2023/07/12 04:38:35;;;;;;;16.33;10.47;;;21.60;97.40;;;22.13;64.30;95314.28;4964290;28;20839;-65
2023/07/12 04:41:02;;;;;;;24.27;10.87;;;21.60;97.30;;;22.22;64.51;95314.13;4977019;28;20498;-65
2023/07/12 04:43:30;;;;;;;15.93;10.63;;;21.70;97.40;;;22.30;63.94;95314.78;4981100;28;21131;-61
2023/07/12 04:45:59;;;;;;;22.87;11.07;;;21.70;97.40;;;22.39;64.48;95315.44;4998899;28;20510;-62
2023/07/12 04:48:26;;;;;;;15.23;10.43;;;21.80;97.40;;;22.47;63.80;95317.91;4969356;28;20513;-62
2023/07/12 04:50:54;;;;;;;27.50;14.23;;;21.90;97.50;;;22.54;64.22;95326.81;4961727;28;20475;-65
2023/07/12 04:53:22;;;;;;;12.80;10.37;;;22.00;97.60;;;22.62;63.90;95319.59;4986587;28;20468;-65
2023/07/12 04:55:50;;;;;;;19.43;12.50;;;22.00;97.30;;;22.68;63.57;95324.97;4974012;28;20494;-62
2023/07/12 04:58:18;;;;;;;20.80;10.30;;;22.10;97.10;;;22.74;63.68;95326.84;4988126;28;20496;-66
2023/07/12 05:00:45;;;;;;;15.70;11.47;;;22.20;97.10;;;22.81;63.65;95318.81;4997489;28;20494;-66
2023/07/12 05:03:15;;;;;;;21.77;11.23;;;22.30;97.10;;;22.88;63.30;95319.63;4997593;28;21003;-68
2023/07/12 05:05:42;;;;;;;17.67;10.47;;;22.30;97.00;;;22.94;63.64;95311.78;4977430;28;21049;-65
2023/07/12 05:08:10;;;;;;;17.10;12.27;;;22.30;97.00;;;22.97;63.18;95317.56;4975039;28;20630;-60
2023/07/12 05:10:38;;;;;;;16.23;11.57;;;22.40;96.90;;;23.01;62.62;95315.31;4971209;28;21062;-61
2023/07/12 05:13:05;;;;;;;26.43;12.13;;;22.40;96.60;;;23.05;62.57;95309.31;4965469;28;20467;-61
2023/07/12 05:15:32;;;;;;;22.10;12.70;;;22.50;96.50;;;23.11;62.38;95314.91;4970355;28;20509;-68
2023/07/12 05:18:00;;;;;;;23.83;12.07;;;22.50;96.30;;;23.15;61.73;95318.84;4963119;28;20482;-68
2023/07/12 05:20:28;;;;;;;26.03;12.80;;;22.60;96.30;;;23.24;61.90;95317.59;4965894;28;20995;-68
2023/07/12 05:22:56;;;;;;;19.83;12.20;;;22.70;96.20;;;23.32;62.35;95313.88;4967284;28;20591;-61
2023/07/12 05:25:23;;;;;;;15.50;11.67;;;22.70;96.20;;;23.43;61.76;95310.56;4966527;28;20483;-68
2023/07/12 05:27:50;;;;;;;15.07;11.20;;;22.80;96.30;;;23.58;61.46;95321.88;4967029;28;20467;-66
2023/07/12 05:30:18;;;;;;;22.80;12.53;;;23.00;96.20;;;23.73;61.47;95316.25;4960166;28;20486;-61
2023/07/12 05:32:45;;;;;;;23.13;13.67;;;23.10;96.00;;;23.88;61.19;95329.47;4964683;28;20847;-61
2023/07/12 05:35:12;;;;;;;28.60;13.13;;;23.20;95.80;;;24.04;61.29;95316.59;4966138;28;20952;-68
2023/07/12 05:37:41;;;;;;;18.50;12.90;;;23.40;96.00;;;24.23;61.02;95315.69;4966939;28;20968;-61
2023/07/12 05:40:10;;;;;;;17.60;13.90;;;23.50;95.80;;;24.40;59.86;95315.19;4966994;28;20483;-69
2023/07/12 05:42:40;;;;;;;28.00;15.00;;;23.70;95.60;;;24.55;59.63;95323.78;4967000;28;21029;-62
2023/07/12 05:45:09;;;;;;;23.57;13.33;;;23.90;95.10;;;24.67;59.09;95315.88;4966766;28;21011;-62
2023/07/12 05:47:37;;;;;;;22.07;13.40;;;24.00;94.80;;;24.78;59.01;95311.69;4964252;28;20523;-63
2023/07/12 05:50:07;;;;;;;33.43;15.33;;;24.10;94.50;;;24.90;58.53;95309.13;4965609;28;21018;-67
2023/07/12 05:52:34;;;;;;;29.43;14.20;;;24.20;94.50;;;25.07;58.94;95315.59;4966142;28;20462;-62
2023/07/12 05:55:03;;;;;;;20.17;13.67;;;24.30;94.40;;;25.27;58.50;95325.34;4966458;28;20524;-68
2023/07/12 05:57:30;;;;;;;32.67;15.57;;;24.50;94.20;;;25.43;57.66;95334.78;4966240;28;20826;-67
2023/07/12 05:59:57;;;;;;;30.93;14.97;;;24.70;93.80;;;25.56;56.89;95343.56;4966267;28;20471;-62
2023/07/12 06:02:24;;;;;;;29.70;13.10;;;24.80;93.40;;;25.67;56.68;95347.41;4965312;28;20522;-60
2023/07/12 06:04:52;;;;;;;20.87;13.93;;;24.90;93.20;;;25.81;56.72;95336.47;4965960;28;20479;-61
2023/07/12 06:07:19;;;;;;;17.17;13.13;;;25.10;92.90;;;25.97;56.38;95335.88;4965516;28;20944;-62
2023/07/12 06:09:47;;;;;;;17.40;14.00;;;25.20;92.70;;;26.15;55.81;95343.19;4966034;28;20895;-67
2023/07/12 06:12:16;;;;;;;23.17;13.17;;;25.40;92.50;;;26.35;55.84;95342.91;4965911;28;20883;-61
2023/07/12 06:14:43;;;;;;;15.73;14.00;;;25.60;92.20;;;26.54;54.98;95337.47;4966462;28;20520;-61
2023/07/12 06:17:10;;;;;;;22.20;12.83;;;25.80;91.80;;;26.69;54.69;95342.50;4963652;28;20688;-61
2023/07/12 06:19:38;;;;;;;27.30;13.90;;;25.90;91.10;;;26.82;54.21;95348.53;4965429;28;20497;-67
2023/07/12 06:22:06;;;;;;;19.13;13.73;;;26.10;91.00;;;26.95;53.86;95343.97;4965533;28;20491;-68
2023/07/12 06:24:33;;;;;;;17.10;13.50;;;26.20;90.90;;;27.04;53.67;95339.91;4966331;28;20497;-67
2023/07/12 06:27:00;;;;;;;26.83;14.43;;;26.30;90.50;;;27.13;53.13;95337.69;4963098;28;20983;-68
2023/07/12 06:29:29;;;;;;;15.67;13.03;;;26.40;90.20;;;27.24;53.04;95334.19;4965962;28;20467;-60
2023/07/12 06:31:57;;;;;;;20.17;12.20;;;26.50;90.00;;;27.35;52.96;95338.78;4964683;28;20960;-68
2023/07/12 06:34:24;;;;;;;21.33;12.77;;;26.60;89.80;;;27.47;52.44;95330.72;4962710;28;20478;-65
2023/07/12 06:36:51;;;;;;;16.30;11.23;;;26.70;89.30;;;27.60;52.34;95336.94;4965556;28;21426;-70
2023/07/12 06:39:19;;;;;;;17.00;11.57;;;26.80;88.60;;;27.75;51.70;95329.16;4965258;28;21023;-63
2023/07/12 06:41:47;;;;;;;12.63;11.33;;;27.00;88.00;;;27.90;51.90;95342.19;4965317;28;20505;-60
2023/07/12 06:44:14;;;;;;;19.07;11.37;;;27.10;87.70;;;28.08;51.16;95331.25;4965637;28;20462;-59
2023/07/12 06:46:43;;;;;;;16.43;11.93;;;27.30;86.90;;;28.26;50.96;95327.56;4962362;28;20878;-67
2023/07/12 06:49:13;;;;;;;24.20;11.33;;;27.50;86.50;;;28.36;50.35;95328.84;4965025;28;20451;-61
2023/07/12 06:51:40;;;;;;;25.90;10.97;;;27.60;85.60;;;28.53;50.16;95327.00;4965363;28;20971;-68
2023/07/12 06:54:07;;;;;;;22.93;11.20;;;27.70;85.20;;;28.71;50.10;95319.78;4965173;28;20455;-67
2023/07/12 06:56:34;;;;;;;22.90;10.97;;;27.90;85.30;;;28.90;50.25;95317.69;4965163;28;20464;-60
2023/07/12 06:59:02;;;;;;;20.90;10.00;;;28.10;85.10;;;29.11;49.57;95333.22;4965111;28;20462;-60
2023/07/12 07:01:29;;;;;;;24.00;10.90;;;28.30;84.80;;;29.31;49.41;95321.06;4965677;28;20594;-69
2023/07/12 07:03:58;;;;;;;20.97;12.00;;;28.50;84.30;;;29.51;49.30;95326.00;4964888;28;20891;-62
2023/07/12 07:06:25;;;;;;;18.53;9.83;;;28.70;84.00;;;29.66;49.45;95328.13;4965817;28;20219;-61
2023/07/12 07:08:53;;;;;;;19.57;11.23;;;28.90;83.40;;;29.84;48.48;95340.63;4965074;28;20215;-61
2023/07/12 07:11:20;;;;;;;23.50;10.50;;;29.00;82.30;;;30.00;47.95;95338.94;4965170;28;20228;-62
2023/07/12 07:13:50;;;;;;;20.77;12.67;;;29.20;81.90;;;30.16;48.50;95340.78;4964456;28;20257;-69
2023/07/12 07:16:17;;;;;;;17.37;11.07;;;29.30;81.30;;;30.30;47.66;95343.91;4962102;28;20227;-67
2023/07/12 07:18:44;;;;;;;20.20;11.73;;;29.50;80.90;;;30.44;48.40;95349.81;4964571;28;20276;-62
2023/07/12 07:21:13;;;;;;;17.20;11.83;;;29.60;80.60;;;30.52;47.09;95348.53;4966026;28;20248;-60
2023/07/12 07:23:40;;;;;;;32.63;12.20;;;29.70;79.70;;;30.55;47.33;95343.44;4958379;28;20208;-68
2023/07/12 07:26:09;;;;;;;28.70;10.87;;;29.80;79.10;;;30.65;47.74;95340.00;4960772;28;20239;-62
2023/07/12 07:28:37;;;;;;;17.10;13.37;;;29.80;79.10;;;30.83;47.26;95346.16;4959395;28;20208;-62
2023/07/12 07:31:04;;;;;;;19.20;12.53;;;30.00;79.10;;;30.97;47.37;95339.28;4959613;28;20664;-70
2023/07/12 07:33:32;;;;;;;22.97;12.50;;;30.10;78.80;;;31.01;46.17;95336.88;4964509;28;20212;-62
2023/07/12 07:35:59;;;;;;;22.60;11.43;;;30.20;77.70;;;31.09;46.67;95326.34;4964878;28;20761;-62
2023/07/12 07:38:28;;;;;;;24.23;11.83;;;30.30;77.50;;;31.18;46.28;95321.25;4961086;28;20211;-68
2023/07/12 07:40:56;;;;;;;21.60;10.97;;;30.30;77.60;;;31.27;46.66;95321.59;4961161;28;20235;-68
2023/07/12 07:43:23;;;;;;;15.73;10.87;;;30.40;77.50;;;31.38;46.09;95322.50;4958388;28;20760;-61
2023/07/12 07:45:50;;;;;;;21.90;11.13;;;30.50;77.00;;;31.53;46.13;95327.25;4960733;28;20223;-62
2023/07/12 07:48:18;;;;;;;20.67;10.90;;;30.60;76.40;;;31.74;45.37;95339.91;4960884;28;20207;-69
2023/07/12 07:50:45;;;;;;;21.33;10.85;;;30.80;75.90;;;31.95;45.24;95335.41;4957804;28;20259;-69
2023/07/12 07:53:12;;;;;;;20.08;10.85;;;31.10;75.70;;;32.19;45.10;95326.03;4956766;28;20205;-62
2023/07/12 07:55:44;;;;;;;17.15;10.77;;;31.30;74.90;;;32.40;44.35;95322.31;4961316;28;20386;-69
2023/07/12 07:58:12;;;;;;;16.63;11.25;;;31.50;74.10;;;32.63;44.39;95328.38;4958166;28;20207;-69
2023/07/12 08:00:39;;;;;;;30.27;11.13;;;31.70;73.70;;;32.82;44.13;95324.06;4960307;28;20223;-62
2023/07/12 08:03:06;;;;;;;20.20;10.95;;;31.90;73.00;;;32.96;43.85;95321.66;4955660;28;20211;-67
2023/07/12 08:05:34;;;;;;;16.25;10.43;;;32.10;72.40;;;33.05;43.43;95325.47;4956232;28;20227;-69
2023/07/12 08:08:01;;;;;;;17.70;11.85;;;32.20;71.00;;;33.19;42.98;95319.53;4957975;28;20219;-68
2023/07/12 08:10:29;;;;;;;14.60;10.05;;;32.30;71.10;;;33.34;43.15;95332.31;4960303;28;20227;-61
2023/07/12 08:12:58;;;;;;;24.25;11.73;;;32.50;70.70;;;33.50;42.62;95328.50;4956676;28;20974;-61
2023/07/12 08:15:26;;;;;;;20.38;11.35;;;32.70;70.50;;;33.70;42.25;95326.84;4959889;28;20223;-68
2023/07/12 08:17:53;;;;;;;25.55;10.20;;;32.80;69.90;;;33.88;41.93;95326.31;4963902;28;20253;-70
2023/07/12 08:20:20;;;;;;;32.15;11.75;;;33.00;69.30;;;34.03;42.48;95330.88;4964101;28;20234;-63
2023/07/12 08:22:48;;;;;;;15.13;10.32;;;33.20;69.00;;;34.17;42.21;95331.13;4964299;28;20235;-62
2023/07/12 08:25:15;;;;;;;17.80;11.50;;;33.30;68.40;;;34.29;41.57;95334.38;4963743;28;20284;-69
2023/07/12 08:27:43;;;;;;;15.38;10.13;;;33.40;68.20;;;34.45;41.68;95331.59;4964136;28;20638;-62
2023/07/12 08:30:13;;;;;;;27.08;13.63;;;33.50;67.90;;;34.53;41.55;95332.91;4965122;28;20253;-69
2023/07/12 08:32:40;;;;;;;21.92;12.23;;;33.70;67.40;;;34.55;41.36;95320.63;4966879;28;20203;-61
2023/07/12 08:35:09;;;;;;;14.23;11.02;;;33.70;66.90;;;34.65;41.18;95326.00;4966568;28;20731;-63
2023/07/12 08:37:36;;;;;;;17.45;10.40;;;33.80;67.00;;;34.84;40.45;95333.59;4967357;28;20253;-61
2023/07/12 08:40:05;;;;;;;20.92;9.63;;;33.90;66.30;;;35.03;40.43;95325.56;4967079;28;20247;-69
2023/07/12 08:42:36;;;;;;;14.95;8.77;;;34.10;65.70;;;35.23;39.99;95326.50;4967321;28;20231;-67
2023/07/12 08:45:19;;;;;;;13.35;9.00;;;34.30;65.50;;;35.45;39.51;95329.63;4963752;28;20325;-62
2023/07/12 08:47:46;;;;;;;14.57;10.45;;;34.50;65.00;;;35.66;40.16;95327.50;4962243;28;20207;-70
2023/07/12 08:50:14;;;;;;;14.10;8.43;;;34.80;64.70;;;35.85;39.83;95321.34;4967404;28;20227;-61
2023/07/12 08:52:41;;;;;;;15.20;8.75;;;34.90;64.00;;;36.01;39.72;95328.28;4967503;28;20644;-61
2023/07/12 08:55:12;;;;;;;23.35;8.73;;;35.10;63.50;;;36.14;39.51;95323.22;4967234;28;20238;-61
2023/07/12 08:57:39;;;;;;;14.85;8.75;;;35.30;63.20;;;36.09;39.07;95324.09;4968797;28;20211;-68
2023/07/12 09:00:10;;;;;;;13.35;9.20;;;35.30;61.90;;;35.97;38.63;95316.28;4968512;28;20220;-69
2023/07/12 09:02:39;;;;;;;22.17;9.10;;;35.20;61.30;;;35.95;38.87;95323.97;4966628;28;20251;-62
2023/07/12 09:05:14;;;;;;;15.48;8.85;;;35.20;61.80;;;36.06;38.73;95309.06;4967178;28;20311;-60
2023/07/12 09:07:45;;;;;;;16.38;8.95;;;35.20;61.90;;;36.20;38.62;95309.16;4965906;28;20264;-70
2023/07/12 09:10:12;;;;;;;17.42;8.52;;;35.30;61.20;;;36.33;38.69;95304.97;4967068;28;20719;-61
2023/07/12 09:12:40;;;;;;;34.45;10.48;;;35.50;62.20;;;36.39;38.50;95298.31;4967366;28;20714;-69
2023/07/12 09:15:12;;;;;;;14.75;8.80;;;35.50;60.60;;;36.35;38.45;95294.50;4966036;28;20228;-69
2023/07/12 09:17:43;;;;;;;14.05;9.35;;;35.50;60.30;;;36.33;38.41;95288.53;4966474;28;20261;-67
2023/07/12 09:20:23;;;;;;;16.73;9.95;;;35.50;60.00;;;36.45;38.19;95292.75;4966933;28;20289;-69
2023/07/12 09:22:50;;;;;;;27.23;8.65;;;35.50;60.00;;;36.53;37.95;95281.13;4963719;28;20223;-69
2023/07/12 09:25:22;;;;;;;12.48;9.77;;;35.70;59.90;;;36.49;37.81;95280.09;4966766;28;20229;-61
2023/07/12 09:27:50;;;;;;;15.88;8.90;;;35.70;59.50;;;36.42;37.23;95273.06;4966932;28;20207;-70
2023/07/12 09:30:21;;;;;;;14.05;9.10;;;35.60;58.90;;;36.43;37.72;95279.34;4968175;28;20223;-70
2023/07/12 09:32:49;;;;;;;19.45;8.63;;;35.60;59.30;;;36.48;37.52;95267.50;4962899;28;20199;-68
2023/07/12 09:35:25;;;;;;;16.73;9.20;;;35.60;59.40;;;36.55;37.30;95273.44;4959479;28;20239;-70
2023/07/12 09:37:58;;;;;;;14.82;8.90;;;35.70;59.10;;;36.67;37.16;95272.97;4963174;28;20292;-62
2023/07/12 09:40:25;;;;;;;9.18;7.78;;;35.80;58.70;;;36.82;36.73;95274.72;4960348;28;20220;-61
2023/07/12 09:42:56;;;;;;;16.52;8.15;;;35.90;57.80;;;36.90;35.95;95266.63;4961926;28;20262;-61
2023/07/12 09:45:24;;;;;;;14.57;7.82;;;36.00;56.90;;;37.01;35.39;95260.97;4962317;28;20232;-69
2023/07/12 09:48:01;;;;;;;27.13;8.40;;;36.10;56.20;;;37.08;35.16;95270.47;4962698;28;20588;-69
2023/07/12 09:50:35;;;;;;;10.50;8.32;;;36.20;56.30;;;37.18;35.72;95269.47;4958925;28;20227;-61
2023/07/12 09:53:05;;;;;;;23.10;8.88;;;36.30;56.60;;;37.27;35.40;95264.94;4965907;28;20207;-68
2023/07/12 09:55:36;;;;;;;23.60;8.75;;;36.40;56.00;;;37.35;35.27;95270.88;4966922;28;20235;-69
2023/07/12 09:58:10;;;;;;;13.52;6.63;;;36.50;55.80;;;37.45;34.81;95266.03;4965343;28;20206;-62
2023/07/12 10:00:41;;;;;;;10.75;7.03;;;36.60;55.00;;;37.53;34.78;95260.97;4966181;28;20231;-69
2023/07/12 10:03:17;;;;;;;11.50;7.85;;;36.60;54.90;;;37.61;33.60;95261.06;4962265;28;20227;-68
2023/07/12 10:05:48;;;;;;;8.40;6.30;;;36.70;54.10;;;37.65;33.93;95256.59;4966242;28;20234;-62
2023/07/12 10:08:17;;;;;;;7.72;6.97;;;36.80;53.90;;;37.63;33.94;95247.88;4965709;28;20204;-69
2023/07/12 10:10:48;;;;;;;13.55;7.28;;;36.80;53.40;;;37.56;33.65;95249.38;4965920;28;20620;-60
2023/07/12 10:13:37;;;;;;;16.65;7.93;;;36.70;53.20;;;37.54;32.43;95249.69;4962097;28;20206;-61
2023/07/12 10:16:06;;;;;;;9.57;7.40;;;36.70;53.10;;;37.50;33.65;95245.91;4962491;28;20235;-62